Terminal Aerodrome Forecast
Issued by NWS

Home | Current Version | Previous Version | Text Only | Print | Product List | Glossary On
Versions: 1 2 3 4 5 6 7 8 9 10 11 12 13 14 15 16 17
000
FTUS46 KPDT 290500
TAFALW
TAF
KALW 290520Z 2906/3006 20018G28KT P6SM -SHRA OVC050
     FM290800 22012KT P6SM VCSH SCT040 BKN060
     FM291600 24007KT P6SM SCT040 BKN070=

USA.gov is the U.S. government's official web portal to all federal, state and local government web resources and services.